^^
Datos históricos de la estación: Murcia-Puente Tocinos
Diario Informe para Junio 5, 2019 Unidades:  Métrico    Ingés   Ambas
Diario Semanal Mensual Anual
  Máxima: Mínima: Promedio:
Temperatura: 16.3 °C 11.1 °C 13.4 °C
Punto de rocio: 11.8 °C 8.4 °C 10 °C
Humedad: 89% 66.9% 81%
Velocidad viento: 11.1km/h 0km/h 4.5km/h
Racha viento: 22.5km/h - -
Viento- - SE
Presión: 1019.8 hPa 1008.3 hPa -
Precipitación: 0.0 mm    
 
 
Tabla de datos para Junio 5, 2019
Hora Temperatura Punto de rocio Presión Viento Velocidad viento Racha viento Humedad Intensidad lluvia(por hora) Nubes
00:04 12.6 °C 8.7 °C 1008.3 hPa Calm     77% 0.0 mm
00:09 12.6 °C 8.7 °C 1008.5 hPa Calm   7.6 km/h 77% 0.0 mm
00:14 12.6 °C 8.7 °C 1008.5 hPa SSE 2.3 km/h 9.7 km/h 77% 0.0 mm
00:19 12.6 °C 8.6 °C 1008.5 hPa Sur 3.2 km/h 9.5 km/h 77% 0.0 mm
00:24 12.5 °C 8.6 °C 1008.6 hPa SSO 5.6 km/h 10 km/h 77% 0.0 mm
00:29 12.5 °C 8.6 °C 1008.6 hPa SSO 6.5 km/h 13 km/h 77% 0.0 mm
00:34 12.6 °C 8.5 °C 1008.6 hPa SSO 7.3 km/h 12.9 km/h 76% 0.0 mm
00:39 12.7 °C 8.5 °C 1008.7 hPa SO 7.6 km/h 12.2 km/h 75.9% 0.0 mm
00:44 12.7 °C 8.4 °C 1008.7 hPa SO 7.6 km/h 12.9 km/h 75% 0.0 mm
00:49 12.7 °C 8.4 °C 1008.7 hPa SO 7.6 km/h 11.3 km/h 75% 0.0 mm
00:54 12.8 °C 8.5 °C 1008.7 hPa SSO 7.1 km/h 13 km/h 75% 0.0 mm
00:59 12.8 °C 8.6 °C 1008.7 hPa SSO 6.9 km/h 12.9 km/h 76% 0.0 mm
01:04 12.7 °C 8.6 °C 1008.7 hPa SO 6.9 km/h 11.3 km/h 76% 0.0 mm
01:09 12.7 °C 8.7 °C 1008.8 hPa SSO 6.9 km/h 9.7 km/h 76.6% 0.0 mm
01:14 12.7 °C 8.8 °C 1008.8 hPa SSO 5.3 km/h 8 km/h 77% 0.0 mm
01:19 12.7 °C 8.8 °C 1008.8 hPa SO 4.7 km/h 6.4 km/h 77% 0.0 mm
01:24 12.6 °C 8.9 °C 1008.8 hPa SO 3.3 km/h 6.4 km/h 77.9% 0.0 mm
01:29 12.6 °C 8.9 °C 1008.8 hPa SSO 2.9 km/h 7.4 km/h 78% 0.0 mm
01:34 12.6 °C 9 °C 1008.8 hPa SSE 3.6 km/h 8 km/h 78.8% 0.0 mm
01:39 12.5 °C 9 °C 1008.8 hPa Sur 3.9 km/h 8.7 km/h 79.2% 0.0 mm
01:44 12.4 °C 9.1 °C 1008.8 hPa Sur 4.5 km/h 9.7 km/h 80% 0.0 mm
01:49 12.4 °C 9 °C 1008.8 hPa Sur 4.7 km/h 9.7 km/h 80% 0.0 mm
01:54 12.3 °C 9 °C 1008.9 hPa SSO 4.1 km/h 8 km/h 80% 0.0 mm
01:59 12.3 °C 9.1 °C 1008.9 hPa Sur 3.9 km/h 8 km/h 80.8% 0.0 mm
02:04 12.3 °C 9.1 °C 1008.9 hPa SSO 4.5 km/h 8 km/h 81% 0.0 mm
02:09 12.3 °C 9.1 °C 1009.1 hPa Sur 4.7 km/h 8.7 km/h 81% 0.0 mm
02:14 12.3 °C 9.1 °C 1009.1 hPa Sur 5.5 km/h 10 km/h 81.1% 0.0 mm
02:19 12.2 °C 9.2 °C 1009.1 hPa Sur 5.8 km/h 11.1 km/h 82% 0.0 mm
02:24 12.2 °C 9.2 °C 1009.2 hPa SSO 6.6 km/h 11.3 km/h 82% 0.0 mm
02:29 12.2 °C 9.2 °C 1009.2 hPa SSO 6.9 km/h 11.3 km/h 82% 0.0 mm
02:34 12.2 °C 9.2 °C 1009.2 hPa SSO 6.1 km/h 9.7 km/h 82% 0.0 mm
02:39 12.2 °C 9.1 °C 1009.3 hPa SSO 5.8 km/h 10.3 km/h 81.2% 0.0 mm
02:44 12.2 °C 9.1 °C 1009.3 hPa SSO 6.3 km/h 11.3 km/h 81% 0.0 mm
02:49 12.2 °C 9.1 °C 1009.3 hPa SSO 6.5 km/h 9.7 km/h 81% 0.0 mm
02:54 12.3 °C 9.1 °C 1009.5 hPa SSO 6.5 km/h 11.1 km/h 80.8% 0.0 mm
02:59 12.3 °C 9.1 °C 1009.5 hPa SO 6.5 km/h 11.3 km/h 80.8% 0.0 mm
03:04 12.3 °C 8.9 °C 1009.5 hPa SO 6 km/h 9.7 km/h 80% 0.0 mm
03:09 12.3 °C 9 °C 1009.7 hPa OSO 5.8 km/h 8.7 km/h 80.5% 0.0 mm
03:14 12.3 °C 9 °C 1009.7 hPa SO 4.4 km/h 9.7 km/h 80.3% 0.0 mm
03:19 12.2 °C 9.1 °C 1009.7 hPa SO 3.9 km/h 9.7 km/h 81% 0.0 mm
03:24 12.2 °C 9.1 °C 1009.7 hPa SO 4.7 km/h 8.4 km/h 81% 0.0 mm
03:29 12.2 °C 9 °C 1009.7 hPa OSO 5 km/h 9.3 km/h 81% 0.0 mm
03:34 12.1 °C 9 °C 1009.7 hPa ONO 4.2 km/h 9.7 km/h 81.2% 0.0 mm
03:39 12.1 °C 9.1 °C 1009.9 hPa NO 3.9 km/h 8 km/h 82% 0.0 mm
03:44 11.9 °C 9 °C 1009.9 hPa NO 3.1 km/h 5.8 km/h 82.3% 0.0 mm
03:49 11.8 °C 9 °C 1009.9 hPa NNE 2.9 km/h 7.4 km/h 83% 0.0 mm
03:54 11.7 °C 9.1 °C 1010.2 hPa ESE 3.1 km/h 8 km/h 84% 0.0 mm
03:59 11.6 °C 9.1 °C 1010.2 hPa ESE 3.2 km/h 8 km/h 84.6% 0.0 mm
04:04 11.5 °C 9.1 °C 1010.2 hPa ESE 3.2 km/h 6.4 km/h 85% 0.0 mm
04:09 11.4 °C 9 °C 1010.2 hPa ESE 3.2 km/h 3.2 km/h 85% 0.0 mm
04:14 11.4 °C 9.2 °C 1010.1 hPa SE 0.9 km/h 9.3 km/h 86% 0.0 mm
04:19 11.4 °C 9.2 °C 1010.1 hPa Calm   10 km/h 86% 0.0 mm
04:24 11.4 °C 9.2 °C 1010.1 hPa Sur 4.7 km/h 10 km/h 86% 0.0 mm
04:29 11.4 °C 9 °C 1010.1 hPa SSO 6.5 km/h 9.7 km/h 85.4% 0.0 mm
04:34 11.4 °C 8.9 °C 1010.1 hPa SSO 6.5 km/h 9.7 km/h 85% 0.0 mm
04:39 11.4 °C 8.9 °C 1010.2 hPa SSO 6.5 km/h 9.7 km/h 85% 0.0 mm
04:44 11.4 °C 8.9 °C 1010.2 hPa SSO 5.4 km/h 9.7 km/h 85% 0.0 mm
04:49 11.4 °C 9 °C 1010.2 hPa SSE 5 km/h 8 km/h 85% 0.0 mm
04:54 11.5 °C 8.9 °C 1010.3 hPa SSE 5 km/h 11.1 km/h 84.1% 0.0 mm
04:59 11.5 °C 8.9 °C 1010.3 hPa SSE 5 km/h 11.3 km/h 84% 0.0 mm
05:04 11.6 °C 8.9 °C 1010.3 hPa SSE 5 km/h 8 km/h 83.7% 0.0 mm
05:09 11.6 °C 8.8 °C 1010.5 hPa Sur 5 km/h 8 km/h 83% 0.0 mm
05:14 11.6 °C 8.8 °C 1010.5 hPa SSO 3.5 km/h 8.4 km/h 83% 0.0 mm
05:19 11.6 °C 8.8 °C 1010.5 hPa SO 2.9 km/h 8 km/h 83% 0.0 mm
05:24 11.6 °C 8.8 °C 1010.5 hPa Sur 3.6 km/h 8 km/h 83% 0.0 mm
05:29 11.6 °C 8.7 °C 1010.4 hPa Sur 3.9 km/h 6.4 km/h 82.5% 0.0 mm
05:34 11.6 °C 8.7 °C 1010.4 hPa Sur 3.1 km/h 4.8 km/h 82.5% 0.0 mm
05:39 11.6 °C 8.8 °C 1010.5 hPa Oeste 2.9 km/h 7.4 km/h 83% 0.0 mm
05:44 11.6 °C 8.8 °C 1010.5 hPa ONO 2.4 km/h 8 km/h 83% 0.0 mm
05:49 11.6 °C 8.8 °C 1010.5 hPa ONO 2.2 km/h 3.2 km/h 83% 0.0 mm
05:54 11.6 °C 8.8 °C 1010.7 hPa ONO 0.6 km/h   83% 0.0 mm
05:59 11.6 °C 8.8 °C 1010.7 hPa Calm   5.8 km/h 83% 0.0 mm
06:04 11.6 °C 8.8 °C 1010.7 hPa SE 1.7 km/h 7.4 km/h 83% 0.0 mm
06:09 11.5 °C 8.7 °C 1010.9 hPa Sur 2.2 km/h 8 km/h 83% 0.0 mm
06:14 11.4 °C 8.6 °C 1010.9 hPa Sur 3.4 km/h 8 km/h 83% 0.0 mm
06:19 11.4 °C 8.7 °C 1010.9 hPa SSE 3.9 km/h 8 km/h 83.8% 0.0 mm
06:24 11.4 °C 8.8 °C 1011.3 hPa SE 4.5 km/h 8 km/h 84% 0.0 mm
06:29 11.3 °C 8.7 °C 1011.3 hPa SE 4.7 km/h 8 km/h 84% 0.0 mm
06:34 11.3 °C 8.7 °C 1011.3 hPa SE 3.4 km/h 5.6 km/h 84% 0.0 mm
06:39 11.4 °C 8.6 °C 1011.4 hPa SE 2.9 km/h 5.6 km/h 83.2% 0.0 mm
06:44 11.4 °C 8.6 °C 1011.4 hPa SE 3.1 km/h 4.8 km/h 83% 0.0 mm
06:49 11.4 °C 8.6 °C 1011.4 hPa SE 3.2 km/h 3.2 km/h 83% 0.0 mm
06:54 11.4 °C 8.6 °C 1011.6 hPa SE 0.9 km/h   83% 0.0 mm
06:59 11.3 °C 8.5 °C 1011.6 hPa Calm     83% 0.0 mm
07:04 11.2 °C 8.5 °C 1011.6 hPa Calm     83.4% 0.0 mm
07:09 11.1 °C 8.5 °C 1011.8 hPa Calm     84% 0.0 mm
07:14 11.1 °C 8.5 °C 1011.8 hPa Calm     84.4% 0.0 mm
07:19 11.1 °C 8.6 °C 1011.8 hPa Calm     85% 0.0 mm
07:24 11.1 °C 8.7 °C 1012.1 hPa Calm     85% 0.0 mm
07:29 11.1 °C 8.8 °C 1012.1 hPa Calm     85.7% 0.0 mm
07:34 11.2 °C 8.8 °C 1012.1 hPa Calm     85.3% 0.0 mm
07:39 11.2 °C 8.8 °C 1012.4 hPa Calm     85% 0.0 mm
07:44 11.2 °C 8.8 °C 1012.4 hPa Calm   9.3 km/h 85% 0.0 mm
07:49 11.3 °C 8.7 °C 1012.4 hPa Calm   10 km/h 84.1% 0.0 mm
07:54 11.4 °C 8.7 °C 1012.6 hPa Oeste 4.7 km/h 10.3 km/h 83.6% 0.0 mm
07:59 11.4 °C 8.6 °C 1012.6 hPa Oeste 6.5 km/h 11.3 km/h 83% 0.0 mm
08:04 11.3 °C 8.5 °C 1012.6 hPa Oeste 6.5 km/h 9.7 km/h 83% 0.0 mm
08:09 11.3 °C 8.5 °C 1012.8 hPa Oeste 6.5 km/h 8 km/h 83% 0.0 mm
08:14 11.3 °C 8.6 °C 1012.8 hPa ONO 3.8 km/h 8 km/h 83.6% 0.0 mm
08:19 11.3 °C 8.7 °C 1012.8 hPa ONO 2.9 km/h   84% 0.0 mm
08:24 11.3 °C 8.7 °C 1013.0 hPa ONO 0.8 km/h   84% 0.0 mm
08:29 11.3 °C 8.7 °C 1013.0 hPa Calm     84% 0.0 mm
08:34 11.4 °C 8.8 °C 1013.0 hPa Calm     84% 0.0 mm
08:39 11.6 °C 9 °C 1013.3 hPa Calm     84% 0.0 mm
08:44 11.8 °C 9.1 °C 1013.3 hPa Calm     83.6% 0.0 mm
08:49 11.9 °C 9.1 °C 1013.3 hPa Calm     83% 0.0 mm
08:54 12.1 °C 9.2 °C 1013.5 hPa Calm   7.6 km/h 82.9% 0.0 mm
08:59 12.1 °C 9.2 °C 1013.5 hPa Calm   8 km/h 82.6% 0.0 mm
09:04 12.1 °C 9.3 °C 1013.5 hPa SSO 2.5 km/h 8 km/h 83% 0.0 mm
09:09 12.2 °C 9.4 °C 1013.8 hPa OSO 3.2 km/h 3.2 km/h 83% 0.0 mm
09:14 12.2 °C 9.3 °C 1013.8 hPa Oeste 0.8 km/h   82% 0.0 mm
09:19 12.3 °C 9.3 °C 1013.8 hPa Calm   7.4 km/h 81.9% 0.0 mm
09:24 12.3 °C 9 °C 1013.9 hPa Oeste 2.1 km/h 8 km/h 80.5% 0.0 mm
09:29 12.3 °C 8.9 °C 1013.9 hPa OSO 2.9 km/h 8 km/h 80% 0.0 mm
09:34 12.3 °C 9 °C 1013.9 hPa SO 4.2 km/h 8 km/h 80% 0.0 mm
09:39 12.4 °C 9 °C 1014.2 hPa SO 4.7 km/h 5.8 km/h 79.9% 0.0 mm
09:44 12.4 °C 8.9 °C 1014.2 hPa OSO 2.9 km/h 7.6 km/h 79% 0.0 mm
09:49 12.5 °C 8.8 °C 1014.2 hPa OSO 2.2 km/h 8 km/h 78% 0.0 mm
09:54 12.7 °C 8.8 °C 1014.4 hPa OSO 3.5 km/h 8.4 km/h 77.4% 0.0 mm
09:59 12.8 °C 8.7 °C 1014.4 hPa SO 3.9 km/h 8 km/h 75.9% 0.0 mm
10:04 13 °C 8.7 °C 1014.4 hPa SO 3.9 km/h 8 km/h 75% 0.0 mm
10:09 13.2 °C 8.7 °C 1014.7 hPa SO 3.9 km/h 8 km/h 74.1% 0.0 mm
10:14 13.3 °C 8.6 °C 1014.7 hPa Oeste 3.4 km/h 9.3 km/h 73% 0.0 mm
10:19 13.3 °C 8.6 °C 1014.7 hPa Oeste 3.2 km/h 10.3 km/h 73% 0.0 mm
10:24 13.4 °C 8.4 °C 1014.9 hPa Oeste 5.1 km/h 11.3 km/h 72% 0.0 mm
10:29 13.5 °C 8.7 °C 1014.9 hPa ONO 5.8 km/h 9.7 km/h 72.7% 0.0 mm
10:34 13.7 °C 8.6 °C 1014.9 hPa Oeste 3.9 km/h 7.4 km/h 71.6% 0.0 mm
10:39 13.8 °C 8.6 °C 1015.2 hPa OSO 3.2 km/h 8 km/h 71% 0.0 mm
10:44 13.9 °C 8.5 °C 1015.2 hPa ONO 3 km/h 7.4 km/h 70.1% 0.0 mm
10:49 13.9 °C 8.5 °C 1015.2 hPa NO 2.9 km/h 8 km/h 69.9% 0.0 mm
10:54 13.8 °C 8.5 °C 1015.4 hPa ONO 2.9 km/h 4.8 km/h 70% 0.0 mm
10:59 13.8 °C 8.5 °C 1015.4 hPa ONO 2.9 km/h   70.2% 0.0 mm
11:04 14.1 °C 8.7 °C 1015.4 hPa ONO 0.6 km/h   70% 0.0 mm
11:09 14.5 °C 8.8 °C 1015.6 hPa Calm     68.4% 0.0 mm
11:14 14.8 °C 8.9 °C 1015.6 hPa Calm     67.4% 0.0 mm
11:19 15.1 °C 9 °C 1015.6 hPa Calm     67% 0.0 mm
11:24 15.2 °C 9.1 °C 1015.7 hPa Calm   10 km/h 67.1% 0.0 mm
11:29 15.1 °C 9.4 °C 1015.7 hPa Calm   9.7 km/h 68.8% 0.0 mm
11:34 15 °C 9.4 °C 1015.7 hPa NNO 3.4 km/h 10 km/h 69% 0.0 mm
11:39 14.9 °C 9.5 °C 1015.7 hPa North 4.7 km/h 9.7 km/h 70% 0.0 mm
11:44 14.8 °C 9.5 °C 1015.6 hPa North 4.9 km/h 11.1 km/h 70.6% 0.0 mm
11:49 14.8 °C 9.7 °C 1015.6 hPa North 5 km/h 11.3 km/h 71.9% 0.0 mm
11:54 14.9 °C 10 °C 1015.8 hPa North 5 km/h 13 km/h 72.4% 0.0 mm
11:59 14.9 °C 9.9 °C 1015.8 hPa NE 5 km/h 13 km/h 72% 0.0 mm
12:04 14.7 °C 9.9 °C 1015.8 hPa NE 7 km/h 12.9 km/h 73.3% 0.0 mm
12:09 14.5 °C 10 °C 1015.8 hPa NE 7.6 km/h 11.1 km/h 74% 0.0 mm
12:14 14.4 °C 10 °C 1015.8 hPa ENE 7.1 km/h 11.3 km/h 75.1% 0.0 mm
12:19 14.5 °C 10.3 °C 1015.8 hPa ENE 6.9 km/h 8 km/h 76% 0.0 mm
12:24 14.7 °C 10.5 °C 1015.8 hPa NE 3.5 km/h 10.3 km/h 76% 0.0 mm
12:29 14.9 °C 10.7 °C 1015.6 hPa North 2.2 km/h 13 km/h 75.9% 0.0 mm
12:34 14.9 °C 10.7 °C 1015.6 hPa NNE 4.9 km/h 17.2 km/h 76% 0.0 mm
12:39 14.8 °C 10.7 °C 1015.6 hPa NE 5.8 km/h 17.7 km/h 76% 0.0 mm
12:44 14.8 °C 10.6 °C 1015.6 hPa NE 8.8 km/h 16.1 km/h 76% 0.0 mm
12:49 14.8 °C 10.7 °C 1015.6 hPa NE 10 km/h 16.1 km/h 76.7% 0.0 mm
12:54 14.8 °C 10.7 °C 1015.6 hPa NNE 8.8 km/h 11.3 km/h 76.8% 0.0 mm
12:59 14.8 °C 10.8 °C 1015.5 hPa NNE 8.4 km/h 13 km/h 77% 0.0 mm
13:04 14.8 °C 10.8 °C 1015.5 hPa NNE 6.9 km/h 13 km/h 77% 0.0 mm
13:09 14.9 °C 10.9 °C 1015.5 hPa NNO 6.5 km/h 12.9 km/h 77% 0.0 mm
13:14 14.9 °C 11 °C 1015.4 hPa NNO 5.2 km/h 9.3 km/h 77.1% 0.0 mm
13:19 15.1 °C 11 °C 1015.4 hPa NO 4.7 km/h 10.3 km/h 76.6% 0.0 mm
13:24 15.1 °C 10.9 °C 1015.4 hPa North 4.9 km/h 11.3 km/h 76% 0.0 mm
13:29 15.2 °C 10.8 °C 1015.3 hPa North 5 km/h 11.3 km/h 75.3% 0.0 mm
13:34 15.3 °C 10.9 °C 1015.3 hPa North 4.8 km/h 13 km/h 75% 0.0 mm
13:39 15.4 °C 10.6 °C 1015.3 hPa NNE 4.7 km/h 12.9 km/h 73.3% 0.0 mm
13:44 15.5 °C 10.5 °C 1015.2 hPa NNE 6.3 km/h 11.3 km/h 72% 0.0 mm
13:49 15.7 °C 10.8 °C 1015.2 hPa NNE 6.9 km/h 14.8 km/h 72.5% 0.0 mm
13:54 15.7 °C 11 °C 1015.2 hPa NNE 8 km/h 14.8 km/h 74% 0.0 mm
13:59 15.4 °C 10.7 °C 1015.2 hPa NNE 8.4 km/h 16.7 km/h 73.7% 0.0 mm
14:04 15.4 °C 10.6 °C 1015.2 hPa NNE 9.2 km/h 16.1 km/h 73% 0.0 mm
14:09 15.4 °C 10.6 °C 1015.2 hPa NE 9.5 km/h 13 km/h 73.1% 0.0 mm
14:14 15.4 °C 10.8 °C 1014.9 hPa NE 8.7 km/h 15.6 km/h 74% 0.0 mm
14:19 15.4 °C 10.8 °C 1014.9 hPa NE 8.4 km/h 16.1 km/h 74.1% 0.0 mm
14:24 15.6 °C 10.9 °C 1015.0 hPa NE 8.6 km/h 14.5 km/h 74% 0.0 mm
14:29 15.7 °C 10.9 °C 1015.0 hPa NE 8.7 km/h 12.9 km/h 73% 0.0 mm
14:34 15.8 °C 10.9 °C 1015.0 hPa NNE 7.4 km/h 12.9 km/h 72.6% 0.0 mm
14:39 16 °C 10.8 °C 1015.0 hPa North 6.9 km/h 18 km/h 71.5% 0.0 mm
14:44 16.2 °C 10.7 °C 1014.9 hPa NNE 6.9 km/h 20.4 km/h 70.1% 0.0 mm
14:49 16.2 °C 10.8 °C 1014.9 hPa NNE 6.9 km/h 20.9 km/h 70.6% 0.0 mm
14:54 15.9 °C 10.7 °C 1014.9 hPa NNE 9.4 km/h 19.3 km/h 71.2% 0.0 mm
14:59 15.8 °C 10.8 °C 1014.8 hPa NNE 10.3 km/h 16.1 km/h 72% 0.0 mm
15:04 15.7 °C 10.9 °C 1014.8 hPa NNE 8.8 km/h 14.8 km/h 73% 0.0 mm
15:09 15.8 °C 10.9 °C 1014.8 hPa NE 8.4 km/h 16.7 km/h 72.7% 0.0 mm
15:14 15.9 °C 10.8 °C 1014.8 hPa NE 8.4 km/h 16.1 km/h 72% 0.0 mm
15:19 15.9 °C 10.8 °C 1014.8 hPa NE 8.4 km/h 13.7 km/h 71.7% 0.0 mm
15:24 15.9 °C 10.9 °C 1014.9 hPa NNE 7.8 km/h 14.5 km/h 71.8% 0.0 mm
15:29 16.2 °C 11 °C 1014.9 hPa NNE 7.6 km/h 12.2 km/h 71.7% 0.0 mm
15:34 16.3 °C 10.9 °C 1014.9 hPa NE 7.1 km/h 18.5 km/h 70.4% 0.0 mm
15:39 16.2 °C 10.7 °C 1014.9 hPa NE 6.9 km/h 19.3 km/h 69.7% 0.0 mm
15:44 16.1 °C 10.6 °C 1014.9 hPa NE 9.2 km/h 14.8 km/h 70% 0.0 mm
15:49 16.2 °C 10.5 °C 1014.9 hPa NE 10 km/h 13.7 km/h 69.2% 0.0 mm
15:54 16.2 °C 10.1 °C 1014.9 hPa NE 7.7 km/h 15.6 km/h 67.1% 0.0 mm
15:59 16.2 °C 10.4 °C 1014.9 hPa ENE 6.9 km/h 16.1 km/h 68.5% 0.0 mm
16:04 16.2 °C 10.4 °C 1014.9 hPa NE 8.3 km/h 14.5 km/h 68.6% 0.0 mm
16:09 16.2 °C 10 °C 1015.1 hPa NE 8.7 km/h 18.5 km/h 66.9% 0.0 mm
16:14 16.2 °C 10 °C 1015.1 hPa NE 8.5 km/h 19.3 km/h 67% 0.0 mm
16:19 16 °C 9.9 °C 1015.1 hPa NE 8.4 km/h 14.5 km/h 67.1% 0.0 mm
16:24 15.9 °C 10 °C 1015.3 hPa NE 8.6 km/h 13 km/h 68% 0.0 mm
16:29 16 °C 10.2 °C 1015.3 hPa NE 8.7 km/h 14.8 km/h 68.6% 0.0 mm
16:34 16 °C 10.5 °C 1015.3 hPa NE 8.7 km/h 14.8 km/h 69.9% 0.0 mm
16:39 16 °C 10.9 °C 1015.4 hPa ENE 8.7 km/h 14.8 km/h 71.9% 0.0 mm
16:44 15.9 °C 11.2 °C 1015.4 hPa NE 8.5 km/h 14.5 km/h 73.5% 0.0 mm
16:49 15.9 °C 11.4 °C 1015.4 hPa NE 8.4 km/h 16.7 km/h 74.7% 0.0 mm
16:54 15.7 °C 11.5 °C 1015.6 hPa NE 9.2 km/h 17.2 km/h 76.1% 0.0 mm
16:59 15.4 °C 11.5 °C 1015.6 hPa NE 9.5 km/h 17.7 km/h 77.2% 0.0 mm
17:04 15.3 °C 11.5 °C 1015.6 hPa NE 9.9 km/h 19 km/h 78.1% 0.0 mm
17:09 15.1 °C 11.5 °C 1015.9 hPa NE 10 km/h 20.1 km/h 79% 0.0 mm
17:14 14.9 °C 11.4 °C 1015.9 hPa NE 10 km/h 22.5 km/h 79.3% 0.0 mm
17:19 14.8 °C 11.4 °C 1015.9 hPa NE 10 km/h 22.5 km/h 80% 0.0 mm
17:24 14.8 °C 11.4 °C 1016.1 hPa ENE 10.8 km/h 19.3 km/h 80.5% 0.0 mm
17:29 14.7 °C 11.4 °C 1016.1 hPa NE 11.1 km/h 19.3 km/h 81% 0.0 mm
17:34 14.7 °C 11.6 °C 1016.1 hPa NE 9.3 km/h 20.9 km/h 81.7% 0.0 mm
17:39 14.6 °C 11.6 °C 1016.4 hPa NE 8.7 km/h 20.9 km/h 82% 0.0 mm
17:44 14.6 °C 11.6 °C 1016.4 hPa NE 9.7 km/h 16.7 km/h 82.6% 0.0 mm
17:49 14.4 °C 11.6 °C 1016.4 hPa NE 10 km/h 14.8 km/h 83% 0.0 mm
17:54 14.4 °C 11.6 °C 1016.7 hPa NE 9 km/h 15.6 km/h 83% 0.0 mm
17:59 14.4 °C 11.7 °C 1016.7 hPa NE 8.7 km/h 16.7 km/h 83.8% 0.0 mm
18:04 14.3 °C 11.6 °C 1016.7 hPa NE 9.3 km/h 16.1 km/h 84% 0.0 mm
18:09 14.3 °C 11.6 °C 1016.9 hPa NE 9.5 km/h 15.6 km/h 84% 0.0 mm
18:14 14.3 °C 11.7 °C 1016.9 hPa NNE 9.5 km/h 16.1 km/h 84.4% 0.0 mm
18:19 14.2 °C 11.7 °C 1016.9 hPa NNE 9.5 km/h 14.8 km/h 85% 0.0 mm
18:24 14.2 °C 11.7 °C 1016.9 hPa NNE 8.7 km/h 14.5 km/h 85% 0.0 mm
18:29 14.1 °C 11.6 °C 1016.9 hPa NNE 8.4 km/h 11.3 km/h 85% 0.0 mm
18:34 14.1 °C 11.7 °C 1016.9 hPa NNE 7.3 km/h 10 km/h 85.8% 0.0 mm
18:39 14 °C 11.7 °C 1017.1 hPa NNE 6.9 km/h 9.7 km/h 86% 0.0 mm
18:44 13.9 °C 11.6 °C 1017.1 hPa NNE 5.5 km/h 9.7 km/h 86% 0.0 mm
18:49 13.9 °C 11.6 °C 1017.1 hPa NE 5 km/h 9.7 km/h 86% 0.0 mm
18:54 13.9 °C 11.7 °C 1017.4 hPa NE 5.6 km/h 11.1 km/h 86.7% 0.0 mm
18:59 13.9 °C 11.8 °C 1017.4 hPa NE 5.8 km/h 11.3 km/h 87% 0.0 mm
19:04 13.9 °C 11.8 °C 1017.4 hPa NE 5.8 km/h 11.3 km/h 87% 0.0 mm
19:09 13.9 °C 11.8 °C 1017.7 hPa NE 5.8 km/h 9.3 km/h 87% 0.0 mm
19:14 13.8 °C 11.7 °C 1017.7 hPa NNE 4.9 km/h 9.7 km/h 87% 0.0 mm
19:19 13.8 °C 11.7 °C 1017.7 hPa NE 4.7 km/h 9.7 km/h 87% 0.0 mm
19:24 13.8 °C 11.7 °C 1017.8 hPa NE 4.9 km/h 9.5 km/h 87% 0.0 mm
19:29 13.7 °C 11.6 °C 1017.8 hPa NE 5 km/h 9.7 km/h 87.2% 0.0 mm
19:34 13.7 °C 11.7 °C 1017.8 hPa NNE 5 km/h 9.7 km/h 88% 0.0 mm
19:39 13.7 °C 11.7 °C 1018.1 hPa NNE 5 km/h 8 km/h 88% 0.0 mm
19:44 13.7 °C 11.7 °C 1018.1 hPa NE 4.7 km/h 8.4 km/h 88% 0.0 mm
19:49 13.6 °C 11.7 °C 1018.1 hPa NE 4.7 km/h 9.3 km/h 88% 0.0 mm
19:54 13.6 °C 11.7 °C 1018.2 hPa NE 5.5 km/h 9.7 km/h 88% 0.0 mm
19:59 13.6 °C 11.7 °C 1018.2 hPa NE 5.8 km/h 11.1 km/h 88% 0.0 mm
20:04 13.6 °C 11.7 °C 1018.2 hPa NE 5.8 km/h 11.3 km/h 88% 0.0 mm
20:09 13.6 °C 11.7 °C 1018.5 hPa NE 5.8 km/h 9.7 km/h 88% 0.0 mm
20:14 13.6 °C 11.7 °C 1018.5 hPa NE 5.8 km/h 9.7 km/h 88% 0.0 mm
20:19 13.6 °C 11.7 °C 1018.5 hPa NE 5.8 km/h 9.7 km/h 88% 0.0 mm
20:24 13.6 °C 11.7 °C 1018.5 hPa NE 5.2 km/h 8.4 km/h 88% 0.0 mm
20:29 13.6 °C 11.7 °C 1018.5 hPa North 5 km/h 8 km/h 88% 0.0 mm
20:34 13.6 °C 11.7 °C 1018.5 hPa NNO 3.7 km/h 5.6 km/h 88% 0.0 mm
20:39 13.5 °C 11.6 °C 1018.7 hPa NNO 3.2 km/h 5 km/h 88% 0.0 mm
20:44 13.4 °C 11.5 °C 1018.7 hPa NNO 0.8 km/h 5.6 km/h 88% 0.0 mm
20:49 13.4 °C 11.6 °C 1018.7 hPa Calm   3.2 km/h 88.8% 0.0 mm
20:54 13.4 °C 11.6 °C 1018.7 hPa Calm     89% 0.0 mm
20:59 13.4 °C 11.6 °C 1018.7 hPa Calm   3.9 km/h 89% 0.0 mm
21:04 13.4 °C 11.6 °C 1018.7 hPa Calm   3.2 km/h 89% 0.0 mm
21:09 13.3 °C 11.5 °C 1018.8 hPa Calm     89% 0.0 mm
21:14 13.3 °C 11.5 °C 1018.8 hPa Calm     89% 0.0 mm
21:19 13.3 °C 11.5 °C 1018.8 hPa Calm     89% 0.0 mm
21:24 13.3 °C 11.5 °C 1019.0 hPa Calm     89% 0.0 mm
21:29 13.3 °C 11.5 °C 1019.0 hPa Calm     89% 0.0 mm
21:34 13.3 °C 11.5 °C 1019.0 hPa Calm   5.8 km/h 89% 0.0 mm
21:39 13.2 °C 11.5 °C 1019.1 hPa Calm   7.4 km/h 89% 0.0 mm
21:44 13.2 °C 11.4 °C 1019.1 hPa NNE 2.4 km/h 8 km/h 89% 0.0 mm
21:49 13.2 °C 11.4 °C 1019.1 hPa NNE 3.2 km/h 8 km/h 89% 0.0 mm
21:54 13.2 °C 11.4 °C 1019.2 hPa NNE 2.5 km/h 5.6 km/h 89% 0.0 mm
21:59 13.2 °C 11.4 °C 1019.2 hPa NNE 2.2 km/h 5.8 km/h 89% 0.0 mm
22:04 13.2 °C 11.4 °C 1019.2 hPa NNE 2.7 km/h 6.4 km/h 89% 0.0 mm
22:09 13.2 °C 11.4 °C 1019.4 hPa NNE 2.9 km/h 6.4 km/h 89% 0.0 mm
22:14 13.2 °C 11.4 °C 1019.4 hPa NNE 2.4 km/h 3.2 km/h 89% 0.0 mm
22:19 13.2 °C 11.4 °C 1019.4 hPa NNE 2.2 km/h   89% 0.0 mm
22:24 13.2 °C 11.4 °C 1019.4 hPa NNE 0.6 km/h 3.7 km/h 89% 0.0 mm
22:29 13.2 °C 11.4 °C 1019.4 hPa Calm   3.2 km/h 89% 0.0 mm
22:34 13.2 °C 11.4 °C 1019.4 hPa Calm     89% 0.0 mm
22:39 13.2 °C 11.4 °C 1019.5 hPa Calm     89% 0.0 mm
22:44 13.2 °C 11.4 °C 1019.5 hPa Calm     89% 0.0 mm
22:49 13.2 °C 11.4 °C 1019.5 hPa Calm   5.8 km/h 89% 0.0 mm
22:54 13.2 °C 11.4 °C 1019.5 hPa Calm   8.4 km/h 89% 0.0 mm
22:59 13.2 °C 11.4 °C 1019.5 hPa Calm   8 km/h 89% 0.0 mm
23:04 13.2 °C 11.4 °C 1019.5 hPa NO 3 km/h 6.4 km/h 89% 0.0 mm
23:09 13.2 °C 11.4 °C 1019.6 hPa NO 3.9 km/h 6.4 km/h 89% 0.0 mm
23:14 13.2 °C 11.4 °C 1019.6 hPa NO 2.7 km/h 3.2 km/h 89% 0.0 mm
23:19 13.2 °C 11.4 °C 1019.6 hPa NO 2.2 km/h   89% 0.0 mm
23:24 13.2 °C 11.4 °C 1019.6 hPa NO 0.6 km/h   89% 0.0 mm
23:29 13.2 °C 11.4 °C 1019.6 hPa Calm     89% 0.0 mm
23:34 13.2 °C 11.4 °C 1019.6 hPa Calm   3.7 km/h 88.9% 0.0 mm
23:39 13.2 °C 11.3 °C 1019.8 hPa Calm   3.2 km/h 88% 0.0 mm
23:44 13.2 °C 11.2 °C 1019.8 hPa Calm     88% 0.0 mm
23:49 13.1 °C 11.2 °C 1019.8 hPa Calm     88% 0.0 mm
23:54 13.1 °C 11.2 °C 1019.8 hPa Calm     88% 0.0 mm
23:59 13.1 °C 11.2 °C 1019.7 hPa Calm   7.4 km/h 88% 0.0 mm
Murcia-Puente Tocinos, Espa?a
Compliments of Weather Underground - 3 mb

La estación de MeteoMurcia.com, publica sus datos en los siguientes proyectos:

Weather Underground PWS IMURCIAP2 Meteoclimatic www.awekas.at

W3Counter
Web Analytics